Time;durP1;ratioP1;P1;durP2;ratioP2;P2;SDS_P1;SDS_P2;PMS_P1;PMS_P2;Temp;Humidity;BMP_temperature;BMP_pressure;BME280_temperature;BME280_humidity;BME280_pressure;Samples;Min_cycle;Max_cycle;Signal;HPM_P1;HPM_P2
2023/10/20 00:01:42;;;;;;;9.98;9.30;;;;;;;;;;12631716;23;20028;-68
2023/10/20 00:06:41;;;;;;;9.68;8.90;;;;;;;;;;12637915;23;20071;-68
2023/10/20 00:11:39;;;;;;;10.15;9.45;;;;;;;;;;12637443;23;20020;-67
2023/10/20 00:16:35;;;;;;;10.50;9.80;;;;;;;;;;12638065;23;20032;-68
2023/10/20 00:21:31;;;;;;;10.10;9.40;;;;;;;;;;12629973;23;20020;-69
2023/10/20 00:26:28;;;;;;;9.65;9.05;;;;;;;;;;12638108;23;20109;-69
2023/10/20 00:31:24;;;;;;;9.68;9.00;;;;;;;;;;12637008;23;20040;-68
2023/10/20 00:36:21;;;;;;;9.90;9.20;;;;;;;;;;12637177;23;20024;-67
2023/10/20 00:41:17;;;;;;;9.20;8.57;;;;;;;;;;12636200;23;20370;-68
2023/10/20 00:46:13;;;;;;;10.02;9.32;;;;;;;;;;12637829;23;20521;-68
2023/10/20 00:51:10;;;;;;;9.73;8.93;;;;;;;;;;12636340;23;20067;-67
2023/10/20 00:56:06;;;;;;;9.85;9.23;;;;;;;;;;12636108;23;20017;-68
2023/10/20 01:01:04;;;;;;;9.18;8.50;;;;;;;;;;12636235;23;20017;-68
2023/10/20 01:06:02;;;;;;;9.70;9.00;;;;;;;;;;12627415;23;20028;-68
2023/10/20 01:10:58;;;;;;;9.32;8.73;;;;;;;;;;12636519;23;20405;-67
2023/10/20 01:15:55;;;;;;;9.52;8.93;;;;;;;;;;12636927;23;20399;-67
2023/10/20 01:20:51;;;;;;;9.50;8.90;;;;;;;;;;12635024;23;20021;-66
2023/10/20 01:25:47;;;;;;;10.20;9.35;;;;;;;;;;12630765;23;20020;-66
2023/10/20 01:30:44;;;;;;;9.70;9.00;;;;;;;;;;12636325;23;20571;-66
2023/10/20 01:35:40;;;;;;;10.13;9.32;;;;;;;;;;12636416;23;20328;-66
2023/10/20 01:40:36;;;;;;;9.23;8.60;;;;;;;;;;12633210;23;20367;-67
2023/10/20 01:45:33;;;;;;;9.88;9.27;;;;;;;;;;12635814;23;20025;-66
2023/10/20 01:50:29;;;;;;;10.23;9.45;;;;;;;;;;12635254;23;20024;-67
2023/10/20 01:55:25;;;;;;;10.15;9.45;;;;;;;;;;12636264;23;20027;-66
2023/10/20 02:00:22;;;;;;;10.93;9.93;;;;;;;;;;12636111;23;20036;-66
2023/10/20 02:05:18;;;;;;;11.02;10.23;;;;;;;;;;12636090;23;20377;-67
2023/10/20 02:10:15;;;;;;;9.88;9.20;;;;;;;;;;12634640;23;20024;-66
2023/10/20 02:15:11;;;;;;;10.98;10.25;;;;;;;;;;12630014;23;20021;-66
2023/10/20 02:20:08;;;;;;;11.35;10.55;;;;;;;;;;12631683;23;20017;-66
2023/10/20 02:25:04;;;;;;;10.65;9.85;;;;;;;;;;12635823;23;20096;-66
2023/10/20 02:30:01;;;;;;;11.10;10.30;;;;;;;;;;12636218;23;20059;-66
2023/10/20 02:34:57;;;;;;;10.27;9.57;;;;;;;;;;12634997;23;20035;-68
2023/10/20 02:39:53;;;;;;;10.55;9.73;;;;;;;;;;12634699;23;20063;-68
2023/10/20 02:44:49;;;;;;;10.95;10.15;;;;;;;;;;12632914;23;20028;-67
2023/10/20 02:49:46;;;;;;;9.98;9.18;;;;;;;;;;12630154;23;20091;-67
2023/10/20 02:54:42;;;;;;;10.60;9.80;;;;;;;;;;12634655;23;20020;-68
2023/10/20 02:59:39;;;;;;;11.25;10.32;;;;;;;;;;12633925;23;20022;-67
2023/10/20 03:04:36;;;;;;;11.05;10.23;;;;;;;;;;12634269;23;20048;-68
2023/10/20 03:09:32;;;;;;;11.55;10.75;;;;;;;;;;12634416;23;20059;-70
2023/10/20 03:14:29;;;;;;;11.07;10.27;;;;;;;;;;12628308;23;20348;-70
2023/10/20 03:19:26;;;;;;;11.68;10.77;;;;;;;;;;12634390;23;20502;-70
2023/10/20 03:24:22;;;;;;;11.20;10.30;;;;;;;;;;12637848;23;20059;-69
2023/10/20 03:29:19;;;;;;;10.90;10.10;;;;;;;;;;12637643;23;20025;-70
2023/10/20 03:34:15;;;;;;;10.50;9.80;;;;;;;;;;12639060;23;20020;-69
2023/10/20 03:39:21;;;;;;;11.40;10.57;;;;;;;;;;12637064;23;20367;-68
2023/10/20 03:44:18;;;;;;;10.88;10.18;;;;;;;;;;12638840;23;20033;-70
2023/10/20 03:49:15;;;;;;;10.70;9.98;;;;;;;;;;12637199;23;20027;-70
2023/10/20 03:54:14;;;;;;;11.00;10.23;;;;;;;;;;12632069;23;20025;-69
2023/10/20 03:59:11;;;;;;;11.50;10.70;;;;;;;;;;12637821;23;20075;-69
2023/10/20 04:04:11;;;;;;;11.25;10.45;;;;;;;;;;12637780;23;20051;-69
2023/10/20 04:09:09;;;;;;;10.77;9.85;;;;;;;;;;12637062;23;20055;-68
2023/10/20 04:14:06;;;;;;;11.55;10.77;;;;;;;;;;12636551;23;20029;-68
2023/10/20 04:19:04;;;;;;;10.43;9.73;;;;;;;;;;12636437;23;20031;-68
2023/10/20 04:24:01;;;;;;;11.20;10.40;;;;;;;;;;12630456;23;20433;-68
2023/10/20 05:05:26;;;;;;;12.02;11.23;;;;;;;;;;12635422;23;20466;-72
2023/10/20 05:10:23;;;;;;;12.98;11.98;;;;;;;;;;12630589;23;20021;-72
2023/10/20 05:15:20;;;;;;;12.70;11.80;;;;;;;;;;12631967;23;20354;-73
2023/10/20 05:20:20;;;;;;;11.75;10.93;;;;;;;;;;12631598;23;20098;-72
2023/10/20 05:25:17;;;;;;;13.45;12.35;;;;;;;;;;12632748;23;20024;-72
2023/10/20 05:30:13;;;;;;;13.73;12.43;;;;;;;;;;12636138;23;20031;-72
2023/10/20 05:35:09;;;;;;;13.20;12.30;;;;;;;;;;12635212;23;20017;-73
2023/10/20 05:40:06;;;;;;;12.82;11.93;;;;;;;;;;12634871;23;20096;-72
2023/10/20 05:45:03;;;;;;;13.13;12.23;;;;;;;;;;12636781;23;20025;-72
2023/10/20 05:50:01;;;;;;;12.23;11.35;;;;;;;;;;12637095;23;20082;-73
2023/10/20 05:54:59;;;;;;;12.88;11.98;;;;;;;;;;12635673;23;20020;-72
2023/10/20 05:59:58;;;;;;;11.70;10.90;;;;;;;;;;12635015;23;20029;-72
2023/10/20 06:05:27;;;;;;;;;;;;;;;;;;;;;
2023/10/20 06:10:49;;;;;;;12.18;11.38;;;;;;;;;;12621951;23;20013;-73
2023/10/20 06:16:48;;;;;;;11.90;11.10;;;;;;;;;;12642520;22;20024;-72
2023/10/20 06:21:54;;;;;;;12.95;12.05;;;;;;;;;;12638115;22;21060;-72
2023/10/20 06:26:50;;;;;;;13.07;12.18;;;;;;;;;;12659464;23;20339;-73
2023/10/20 06:37:09;;;;;;;13.48;12.27;;;;;;;;;;12633685;23;20610;-72
2023/10/20 06:47:22;;;;;;;12.30;11.40;;;;;;;;;;12567887;22;20347;-72
2023/10/20 06:53:10;;;;;;;13.32;12.43;;;;;;;;;;12605578;22;20046;-72
2023/10/20 06:58:06;;;;;;;12.52;11.60;;;;;;;;;;12635230;23;20021;-72
2023/10/20 07:14:00;;;;;;;13.68;12.50;;;;;;;;;;12614906;23;20021;-72
2023/10/20 07:18:56;;;;;;;14.27;13.10;;;;;;;;;;12631583;23;20024;-72
2023/10/20 07:23:53;;;;;;;12.27;11.35;;;;;;;;;;12634265;23;20462;-73
2023/10/20 07:28:49;;;;;;;13.95;12.85;;;;;;;;;;12634677;23;20035;-73
2023/10/20 07:34:28;;;;;;;14.60;13.32;;;;;;;;;;12638724;22;20062;-72
2023/10/20 07:40:08;;;;;;;13.27;12.27;;;;;;;;;;12531616;23;20025;-72
2023/10/20 07:45:06;;;;;;;14.85;13.45;;;;;;;;;;12634569;23;20020;-71
2023/10/20 07:50:03;;;;;;;14.15;13.05;;;;;;;;;;12634525;23;20028;-71
2023/10/20 07:55:20;;;;;;;14.90;13.70;;;;;;;;;;12636128;22;20397;-72
2023/10/20 08:00:18;;;;;;;15.73;14.32;;;;;;;;;;12632466;23;20054;-71
2023/10/20 08:05:29;;;;;;;14.55;13.45;;;;;;;;;;12623846;22;20025;-72
2023/10/20 08:10:27;;;;;;;14.83;13.53;;;;;;;;;;12633591;23;20112;-72
2023/10/20 08:15:44;;;;;;;16.13;14.85;;;;;;;;;;12629103;22;20026;-72
2023/10/20 08:21:04;;;;;;;15.90;14.60;;;;;;;;;;12601257;23;20088;-72
2023/10/20 08:26:01;;;;;;;15.87;14.57;;;;;;;;;;12627478;22;20027;-72
2023/10/20 08:31:08;;;;;;;14.68;13.48;;;;;;;;;;12637087;23;20052;-72
2023/10/20 08:47:29;;;;;;;14.63;13.60;;;;;;;;;;12621665;23;20024;-71
2023/10/20 08:52:26;;;;;;;14.63;13.43;;;;;;;;;;12636527;23;20367;-71
2023/10/20 08:57:23;;;;;;;14.35;13.07;;;;;;;;;;12636678;23;20035;-72
2023/10/20 09:02:38;;;;;;;15.20;13.85;;;;;;;;;;12640211;22;20107;-71
2023/10/20 09:07:35;;;;;;;11.57;10.65;;;;;;;;;;12636145;23;20048;-71
2023/10/20 09:12:31;;;;;;;14.88;13.57;;;;;;;;;;12635223;23;20111;-72
2023/10/20 09:17:33;;;;;;;16.40;13.73;;;;;;;;;;12635654;23;20017;-71
2023/10/20 09:22:30;;;;;;;;;;;;;;;;;;12636492;23;20031;-71
2023/10/20 09:27:26;;;;;;;13.23;12.10;;;;;;;;;;12635453;23;19924;-71
2023/10/20 09:38:06;;;;;;;14.77;13.57;;;;;;;;;;12635583;23;20021;-71
2023/10/20 09:43:13;;;;;;;14.55;13.15;;;;;;;;;;12619131;23;20063;-71
2023/10/20 09:48:21;;;;;;;15.38;13.88;;;;;;;;;;12630569;23;20024;-71
2023/10/20 09:53:17;;;;;;;13.60;12.60;;;;;;;;;;12635296;23;20028;-71
2023/10/20 09:58:23;;;;;;;12.43;11.32;;;;;;;;;;12635939;23;20095;-71
2023/10/20 10:04:21;;;;;;;14.43;13.27;;;;;;;;;;12637736;22;20024;-71
2023/10/20 10:08:59;;;;;;;12.65;11.75;;;;;;;;;;12624451;23;20071;-71
2023/10/20 10:13:59;;;;;;;12.27;11.27;;;;;;;;;;12635458;23;20463;-72
2023/10/20 10:19:05;;;;;;;11.07;10.23;;;;;;;;;;12634966;23;20020;-72
2023/10/20 10:24:22;;;;;;;11.00;10.20;;;;;;;;;;12635447;22;20028;-71
2023/10/20 10:29:38;;;;;;;13.10;12.02;;;;;;;;;;12634588;23;20070;-72
2023/10/20 10:34:41;;;;;;;11.85;10.95;;;;;;;;;;12635319;23;20099;-72
2023/10/20 10:39:38;;;;;;;13.15;12.00;;;;;;;;;;12633411;23;20065;-72
2023/10/20 10:45:03;;;;;;;11.68;10.77;;;;;;;;;;12635501;22;20087;-72
2023/10/20 10:50:05;;;;;;;11.68;10.77;;;;;;;;;;12607745;23;20052;-71
2023/10/20 10:55:01;;;;;;;11.85;10.85;;;;;;;;;;12635194;23;20466;-71
2023/10/20 10:59:57;;;;;;;11.70;10.73;;;;;;;;;;12634743;23;20091;-72
2023/10/20 11:05:01;;;;;;;11.70;10.90;;;;;;;;;;12637574;22;20086;-72
2023/10/20 11:10:07;;;;;;;13.02;12.00;;;;;;;;;;12617106;23;20087;-72
2023/10/20 11:15:36;;;;;;;11.85;10.75;;;;;;;;;;12623263;22;20025;-72
2023/10/20 11:20:49;;;;;;;10.50;9.80;;;;;;;;;;12617410;23;20021;-72
2023/10/20 11:25:48;;;;;;;10.93;10.13;;;;;;;;;;12632777;23;20100;-72
2023/10/20 11:30:45;;;;;;;11.10;10.30;;;;;;;;;;12635646;23;20024;-72
2023/10/20 11:35:43;;;;;;;11.27;10.43;;;;;;;;;;12633754;23;20035;-72
2023/10/20 11:40:41;;;;;;;10.70;10.00;;;;;;;;;;12635594;23;20029;-72
2023/10/20 11:45:53;;;;;;;10.60;9.80;;;;;;;;;;12626375;22;20386;-72
2023/10/20 11:50:56;;;;;;;11.70;10.80;;;;;;;;;;12636212;23;20569;-72
2023/10/20 11:55:52;;;;;;;10.60;9.90;;;;;;;;;;12638233;23;20373;-72
2023/10/20 12:00:48;;;;;;;11.80;11.00;;;;;;;;;;12637739;23;20032;-71
2023/10/20 12:05:46;;;;;;;11.50;10.70;;;;;;;;;;12630485;23;20025;-72
2023/10/20 12:10:44;;;;;;;12.25;11.02;;;;;;;;;;12637091;23;20028;-72
2023/10/20 12:15:42;;;;;;;12.05;11.25;;;;;;;;;;12636475;23;20029;-72
2023/10/20 12:20:38;;;;;;;12.27;11.38;;;;;;;;;;12638581;23;20028;-71
2023/10/20 12:25:36;;;;;;;11.10;10.38;;;;;;;;;;12637237;23;20033;-71
2023/10/20 12:30:32;;;;;;;11.02;10.32;;;;;;;;;;12637667;23;20027;-72
2023/10/20 12:35:29;;;;;;;10.10;9.50;;;;;;;;;;12637585;23;20418;-71
2023/10/20 12:40:25;;;;;;;9.55;8.95;;;;;;;;;;12636587;23;20047;-71
2023/10/20 12:45:22;;;;;;;10.65;9.95;;;;;;;;;;12635649;23;20057;-72
2023/10/20 12:50:19;;;;;;;10.73;10.02;;;;;;;;;;12633729;23;20034;-72
2023/10/20 12:55:16;;;;;;;11.30;10.60;;;;;;;;;;12632838;23;20092;-72
2023/10/20 13:00:15;;;;;;;10.65;9.95;;;;;;;;;;12632348;23;20021;-72
2023/10/20 13:05:13;;;;;;;9.90;9.30;;;;;;;;;;11563710;22;25067422;-72
2023/10/20 13:10:11;;;;;;;11.90;10.77;;;;;;;;;;12631013;23;20485;-72
2023/10/20 13:15:09;;;;;;;9.52;8.93;;;;;;;;;;12635947;23;20028;-71
2023/10/20 13:20:06;;;;;;;10.52;9.82;;;;;;;;;;12636550;23;20545;-72
2023/10/20 13:25:04;;;;;;;9.60;9.00;;;;;;;;;;12636582;23;20024;-72
2023/10/20 13:30:02;;;;;;;9.75;9.15;;;;;;;;;;12635750;23;20422;-72
2023/10/20 13:35:10;;;;;;;10.55;9.88;;;;;;;;;;12639906;22;20020;-71
2023/10/20 13:40:08;;;;;;;11.00;10.30;;;;;;;;;;12637627;23;20027;-72
2023/10/20 13:45:06;;;;;;;10.75;10.05;;;;;;;;;;12639648;23;20020;-72
2023/10/20 13:50:04;;;;;;;11.23;10.52;;;;;;;;;;12644103;23;20051;-72
2023/10/20 13:55:00;;;;;;;11.00;10.30;;;;;;;;;;12638993;23;20025;-72
2023/10/20 13:59:57;;;;;;;10.43;9.82;;;;;;;;;;12636020;23;20403;-72
2023/10/20 14:04:53;;;;;;;11.10;10.40;;;;;;;;;;12636412;23;20632;-72
2023/10/20 14:09:49;;;;;;;10.68;9.70;;;;;;;;;;12636289;23;20040;-71
2023/10/20 14:14:46;;;;;;;10.60;9.95;;;;;;;;;;12629964;23;20035;-71
2023/10/20 14:19:42;;;;;;;11.18;10.48;;;;;;;;;;12636618;23;20090;-71
2023/10/20 14:24:39;;;;;;;10.70;10.00;;;;;;;;;;12636274;23;20027;-71
2023/10/20 14:29:35;;;;;;;11.10;10.40;;;;;;;;;;12637010;23;20021;-71
2023/10/20 14:34:32;;;;;;;10.27;9.52;;;;;;;;;;12635989;23;20052;-71
2023/10/20 14:39:28;;;;;;;9.80;9.20;;;;;;;;;;12636849;23;20024;-71
2023/10/20 14:44:24;;;;;;;10.27;9.68;;;;;;;;;;12635817;23;20638;-71
2023/10/20 14:49:20;;;;;;;10.52;9.82;;;;;;;;;;12635328;23;20103;-71
2023/10/20 14:54:40;;;;;;;10.82;10.02;;;;;;;;;;12634672;22;20111;-71
2023/10/20 14:59:37;;;;;;;10.88;10.07;;;;;;;;;;12635000;23;20078;-71
2023/10/20 15:04:34;;;;;;;11.00;10.30;;;;;;;;;;12635577;23;20068;-73
2023/10/20 15:09:31;;;;;;;10.15;9.55;;;;;;;;;;12634814;23;20031;-71
2023/10/20 15:14:45;;;;;;;;;;;;;;;;;;;;;
2023/10/20 15:20:18;;;;;;;10.50;9.80;;;;;;;;;;12605480;23;20074;-71
2023/10/20 15:25:24;;;;;;;10.27;9.68;;;;;;;;;;12638651;23;20028;-71
2023/10/20 15:30:20;;;;;;;10.75;10.05;;;;;;;;;;12639032;23;20074;-71
2023/10/20 15:35:17;;;;;;;10.18;9.48;;;;;;;;;;12638824;23;20195;-71
2023/10/20 15:40:13;;;;;;;10.18;9.57;;;;;;;;;;12638337;23;20394;-72
2023/10/20 15:45:14;;;;;;;10.23;9.63;;;;;;;;;;12639128;23;20108;-71
2023/10/20 15:50:14;;;;;;;10.30;9.50;;;;;;;;;;12638374;23;20031;-72
2023/10/20 15:55:12;;;;;;;10.35;9.65;;;;;;;;;;12637280;23;20029;-71
2023/10/20 16:00:09;;;;;;;9.52;8.93;;;;;;;;;;12638368;23;20447;-71
2023/10/20 16:05:07;;;;;;;10.15;9.48;;;;;;;;;;12638401;23;20052;-72
2023/10/20 16:10:04;;;;;;;10.20;9.50;;;;;;;;;;12638668;23;20293;-71
2023/10/20 16:15:28;;;;;;;9.80;9.18;;;;;;;;;;12636930;22;20109;-72
2023/10/20 16:20:24;;;;;;;10.00;9.40;;;;;;;;;;12630524;23;20496;-71
2023/10/20 16:25:21;;;;;;;9.90;9.30;;;;;;;;;;12637507;23;20020;-72
2023/10/20 16:30:17;;;;;;;10.20;9.50;;;;;;;;;;12638031;23;20017;-71
2023/10/20 16:35:13;;;;;;;10.10;9.50;;;;;;;;;;12637878;23;20020;-72
2023/10/20 16:40:11;;;;;;;9.20;8.60;;;;;;;;;;12636042;23;20028;-73
2023/10/20 16:45:09;;;;;;;9.48;8.73;;;;;;;;;;12629592;23;20654;-72
2023/10/20 16:50:06;;;;;;;9.23;8.52;;;;;;;;;;12637755;23;20075;-72
2023/10/20 16:55:02;;;;;;;9.70;9.10;;;;;;;;;;12633758;23;20024;-72
2023/10/20 16:59:59;;;;;;;8.95;8.35;;;;;;;;;;12634823;23;20031;-71
2023/10/20 17:10:47;;;;;;;9.55;8.95;;;;;;;;;;12471790;23;20029;-70
2023/10/20 17:15:44;;;;;;;8.98;8.38;;;;;;;;;;12497954;23;21019;-70
2023/10/20 17:20:41;;;;;;;9.35;8.75;;;;;;;;;;12505813;23;20427;-72
2023/10/20 17:25:44;;;;;;;10.57;8.75;;;;;;;;;;12516139;23;20041;-72
2023/10/20 17:30:44;;;;;;;8.93;8.40;;;;;;;;;;12504090;23;20022;-71
2023/10/20 17:35:44;;;;;;;8.60;8.10;;;;;;;;;;12600171;22;20028;-72
2023/10/20 17:40:40;;;;;;;8.65;8.13;;;;;;;;;;12630198;23;20095;-71
2023/10/20 17:45:38;;;;;;;8.88;8.27;;;;;;;;;;12635760;23;20020;-72
2023/10/20 17:50:37;;;;;;;9.25;8.65;;;;;;;;;;12635536;23;20119;-72
2023/10/20 17:55:37;;;;;;;8.80;8.30;;;;;;;;;;12643535;23;20032;-72
2023/10/20 18:00:35;;;;;;;8.55;8.05;;;;;;;;;;12643615;23;20020;-72
2023/10/20 18:05:32;;;;;;;8.57;8.07;;;;;;;;;;12641867;23;20021;-71
2023/10/20 18:10:29;;;;;;;8.60;8.10;;;;;;;;;;12642125;23;20044;-72
2023/10/20 18:15:26;;;;;;;8.80;8.15;;;;;;;;;;12640113;23;20032;-72
2023/10/20 18:20:23;;;;;;;8.27;7.63;;;;;;;;;;12639716;23;20166;-72
2023/10/20 18:25:21;;;;;;;8.30;7.70;;;;;;;;;;12638586;23;20048;-71
2023/10/20 18:30:21;;;;;;;8.77;8.07;;;;;;;;;;12640560;23;20017;-71
2023/10/20 18:35:19;;;;;;;8.50;8.00;;;;;;;;;;12640631;23;20055;-72
2023/10/20 18:40:16;;;;;;;7.95;7.45;;;;;;;;;;12632602;23;20474;-71
2023/10/20 18:45:15;;;;;;;8.25;7.75;;;;;;;;;;12638673;23;20036;-72
2023/10/20 18:50:12;;;;;;;8.18;7.68;;;;;;;;;;12634662;23;20459;-71
2023/10/20 18:55:09;;;;;;;8.85;8.20;;;;;;;;;;12639049;23;20024;-71
2023/10/20 19:00:06;;;;;;;8.07;7.57;;;;;;;;;;12633624;23;20017;-72
2023/10/20 19:05:17;;;;;;;8.00;7.50;;;;;;;;;;12618076;22;20020;-71
2023/10/20 19:10:18;;;;;;;8.35;7.85;;;;;;;;;;12634994;23;20021;-72
2023/10/20 19:15:16;;;;;;;8.50;8.00;;;;;;;;;;12635939;23;20023;-71
2023/10/20 19:20:13;;;;;;;8.50;7.72;;;;;;;;;;12635958;23;20050;-71
2023/10/20 19:25:10;;;;;;;8.48;7.88;;;;;;;;;;12634321;23;20036;-71
2023/10/20 19:30:12;;;;;;;8.02;7.35;;;;;;;;;;12657245;23;20640;-72
2023/10/20 19:35:20;;;;;;;8.15;7.50;;;;;;;;;;12633461;23;20024;-71
2023/10/20 19:40:17;;;;;;;8.10;7.60;;;;;;;;;;12623188;23;20021;-72
2023/10/20 19:45:15;;;;;;;8.45;7.85;;;;;;;;;;12656214;23;20024;-72
2023/10/20 19:50:21;;;;;;;8.70;8.20;;;;;;;;;;12616853;23;20024;-72
2023/10/20 19:55:18;;;;;;;8.50;8.00;;;;;;;;;;12656909;23;20052;-72
2023/10/20 20:00:18;;;;;;;9.15;8.45;;;;;;;;;;12622161;23;20113;-72
2023/10/20 20:05:19;;;;;;;8.70;8.20;;;;;;;;;;12659553;23;20127;-72
2023/10/20 20:10:16;;;;;;;9.88;9.27;;;;;;;;;;12637689;23;20040;-72
2023/10/20 20:15:14;;;;;;;9.20;8.60;;;;;;;;;;12638050;23;20025;-71
2023/10/20 20:20:12;;;;;;;8.88;8.35;;;;;;;;;;12638717;23;20024;-71
2023/10/20 20:25:09;;;;;;;9.13;8.50;;;;;;;;;;12639290;23;20025;-71
2023/10/20 20:30:07;;;;;;;8.73;8.23;;;;;;;;;;12639708;23;20090;-72
2023/10/20 20:35:05;;;;;;;9.15;8.55;;;;;;;;;;12640581;23;20025;-73
2023/10/20 20:40:03;;;;;;;8.93;8.43;;;;;;;;;;12637022;23;20020;-68
2023/10/20 20:44:59;;;;;;;8.57;7.97;;;;;;;;;;12633412;23;20207;-70
2023/10/20 20:49:55;;;;;;;8.70;8.20;;;;;;;;;;12630135;23;20407;-70
2023/10/20 20:54:52;;;;;;;8.70;8.20;;;;;;;;;;12633169;23;20374;-70
2023/10/20 20:59:52;;;;;;;8.00;7.50;;;;;;;;;;12628831;23;20107;-67
2023/10/20 21:04:48;;;;;;;8.15;7.65;;;;;;;;;;12635386;23;20108;-69
2023/10/20 21:09:45;;;;;;;8.45;7.90;;;;;;;;;;12634789;23;20036;-66
2023/10/20 21:14:41;;;;;;;8.20;7.70;;;;;;;;;;12635152;23;20021;-69
2023/10/20 21:19:37;;;;;;;8.88;8.27;;;;;;;;;;12635267;23;20459;-69
2023/10/20 21:24:34;;;;;;;8.55;7.90;;;;;;;;;;12628596;23;20047;-69
2023/10/20 21:29:30;;;;;;;8.98;8.38;;;;;;;;;;12630027;23;20051;-70
2023/10/20 21:34:26;;;;;;;8.52;7.95;;;;;;;;;;12636450;23;20371;-69
2023/10/20 21:39:23;;;;;;;9.30;8.60;;;;;;;;;;12634122;23;20048;-70
2023/10/20 21:44:19;;;;;;;9.10;8.45;;;;;;;;;;12635517;23;20043;-69
2023/10/20 21:49:15;;;;;;;8.30;7.70;;;;;;;;;;12635202;23;20068;-69
2023/10/20 21:54:11;;;;;;;9.05;8.20;;;;;;;;;;12635255;23;20079;-69
2023/10/20 21:59:08;;;;;;;8.75;8.15;;;;;;;;;;12635378;23;20099;-69
2023/10/20 22:04:04;;;;;;;8.38;7.88;;;;;;;;;;12629382;23;20028;-70
2023/10/20 22:09:01;;;;;;;8.65;8.10;;;;;;;;;;12635866;23;20476;-70
2023/10/20 22:13:57;;;;;;;7.97;7.45;;;;;;;;;;12635154;23;20112;-70
2023/10/20 22:18:54;;;;;;;11.00;8.20;;;;;;;;;;12635595;23;20029;-70
2023/10/20 22:23:50;;;;;;;8.32;7.82;;;;;;;;;;12634855;23;20078;-69
2023/10/20 22:28:46;;;;;;;8.70;8.10;;;;;;;;;;12634960;23;20021;-69
2023/10/20 22:33:43;;;;;;;8.68;8.05;;;;;;;;;;12629563;23;20511;-70
2023/10/20 22:38:39;;;;;;;8.65;8.05;;;;;;;;;;12636180;23;20020;-69
2023/10/20 22:43:36;;;;;;;8.38;7.88;;;;;;;;;;12634601;23;20024;-69
2023/10/20 22:48:32;;;;;;;9.15;8.50;;;;;;;;;;12635904;23;20025;-69
2023/10/20 22:53:28;;;;;;;8.35;7.85;;;;;;;;;;12634697;23;20466;-68
2023/10/20 22:58:25;;;;;;;8.88;8.38;;;;;;;;;;12635033;23;20103;-68
2023/10/20 23:03:21;;;;;;;8.65;8.05;;;;;;;;;;12634754;23;20079;-69
2023/10/20 23:08:18;;;;;;;8.65;8.05;;;;;;;;;;12634857;23;20407;-69
2023/10/20 23:13:14;;;;;;;8.45;7.93;;;;;;;;;;12628737;23;20452;-68
2023/10/20 23:18:11;;;;;;;8.45;7.85;;;;;;;;;;12635099;23;20021;-69
2023/10/20 23:23:07;;;;;;;9.32;8.73;;;;;;;;;;12634157;23;20028;-69
2023/10/20 23:28:04;;;;;;;9.23;8.60;;;;;;;;;;12634728;23;20021;-70
2023/10/20 23:33:00;;;;;;;9.05;8.45;;;;;;;;;;12631856;23;20035;-70
2023/10/20 23:37:56;;;;;;;9.43;8.82;;;;;;;;;;12629549;23;20020;-69
2023/10/20 23:42:53;;;;;;;10.15;9.55;;;;;;;;;;12638882;23;20073;-70
2023/10/20 23:47:49;;;;;;;9.70;9.00;;;;;;;;;;12638196;23;20028;-70
2023/10/20 23:52:45;;;;;;;10.30;9.50;;;;;;;;;;12638758;23;20470;-69
2023/10/20 23:57:42;;;;;;;10.35;9.65;;;;;;;;;;12639404;23;20376;-69
